Terminal Aerodrome Forecast
Issued by NWS

Current Version | Previous Version | Text Only | Print | Product List | Glossary On
Versions: 1 2 3 4 5 6 7 8 9 10 11 12 13 14
000
FTUS43 KPAH 281126
TAFOWB
TAF
KOWB 281126Z 2812/2912 VRB06KT P6SM SCT025 BKN150
      TEMPO 2812/2816 BKN025
     FM282100 27010G15KT P6SM VCSH BKN030
     FM290200 29007KT P6SM SCT035
     FM290800 VRB03KT P6SM SKC=

USA.gov is the U.S. government's official web portal to all federal, state and local government web resources and services.